createdAt,value
2022-08-21T00:01:51.418Z,2.78
2022-08-21T00:04:20.881Z,2.35
2022-08-21T00:06:50.360Z,2.20
2022-08-21T00:09:16.943Z,4.03
2022-08-21T00:11:43.967Z,2.55
2022-08-21T00:14:15.584Z,4.03
2022-08-21T00:16:42.199Z,1.60
2022-08-21T00:19:09.495Z,2.10
2022-08-21T00:21:36.846Z,2.70
2022-08-21T00:24:03.763Z,2.67
2022-08-21T00:26:30.347Z,2.45
2022-08-21T00:28:57.032Z,2.55
2022-08-21T00:31:25.005Z,2.42
2022-08-21T00:33:51.546Z,4.07
2022-08-21T00:36:18.164Z,2.55
2022-08-21T00:38:44.762Z,4.90
2022-08-21T00:41:32.256Z,2.67
2022-08-21T00:43:58.796Z,1.60
2022-08-21T00:46:28.223Z,2.67
2022-08-21T00:48:58.698Z,2.08
2022-08-21T00:51:41.141Z,3.15
2022-08-21T00:54:18.667Z,2.45
2022-08-21T00:56:48.851Z,2.78
2022-08-21T00:59:17.218Z,2.22
2022-08-21T01:01:43.969Z,2.17
2022-08-21T01:04:10.520Z,2.47
2022-08-21T01:06:37.123Z,2.83
2022-08-21T01:09:04.273Z,2.05
2022-08-21T01:11:31.875Z,2.60
2022-08-21T01:13:58.874Z,2.80
2022-08-21T01:16:25.975Z,3.50
2022-08-21T01:18:52.703Z,2.17
2022-08-21T01:21:22.839Z,2.78
2022-08-21T01:23:56.214Z,4.47
2022-08-21T01:26:34.474Z,3.17
2022-08-21T01:29:31.691Z,2.53
2022-08-21T01:31:59.515Z,2.10
2022-08-21T01:34:26.155Z,3.45
2022-08-21T01:36:53.174Z,4.03
2022-08-21T01:39:20.535Z,3.22
2022-08-21T01:41:47.352Z,2.63
2022-08-21T01:44:13.960Z,2.38
2022-08-21T01:46:40.736Z,2.33
2022-08-21T01:49:07.426Z,3.97
2022-08-21T01:51:34.045Z,4.15
2022-08-21T01:54:00.610Z,2.65
2022-08-21T01:56:28.650Z,2.45
2022-08-21T01:58:55.518Z,2.88
2022-08-21T02:01:22.194Z,4.80
2022-08-21T02:03:48.801Z,4.30
2022-08-21T02:06:18.689Z,2.97
2022-08-21T02:08:47.148Z,3.13
2022-08-21T02:11:13.783Z,3.17
2022-08-21T02:13:40.607Z,3.33
2022-08-21T02:16:08.651Z,2.75
2022-08-21T02:18:35.923Z,2.63
2022-08-21T02:21:03.083Z,2.83
2022-08-21T02:23:29.650Z,2.25
2022-08-21T02:25:58.608Z,3.50
2022-08-21T02:28:25.658Z,2.40
2022-08-21T02:30:55.586Z,2.85
2022-08-21T02:33:23.134Z,2.58
2022-08-21T02:35:50.615Z,2.22
2022-08-21T02:38:21.047Z,3.00
2022-08-21T02:40:50.858Z,2.72
2022-08-21T02:43:20.131Z,3.65
2022-08-21T02:45:48.053Z,2.50
2022-08-21T02:48:17.904Z,2.33
2022-08-21T02:50:52.032Z,3.00
2022-08-21T02:53:19.562Z,2.90
2022-08-21T02:55:48.153Z,2.33
2022-08-21T02:58:17.074Z,2.88
2022-08-21T03:00:44.627Z,2.65
2022-08-21T03:03:11.468Z,2.80
2022-08-21T03:05:38.583Z,2.47
2022-08-21T03:08:10.409Z,2.47
2022-08-21T03:10:40.615Z,3.65
2022-08-21T03:13:08.180Z,2.50
2022-08-21T03:15:35.665Z,2.53
2022-08-21T03:18:03.172Z,3.03
2022-08-21T03:20:31.910Z,2.50
2022-08-21T03:22:59.282Z,3.78
2022-08-21T03:25:39.635Z,2.53
2022-08-21T03:28:13.427Z,2.60
2022-08-21T03:30:42.214Z,2.72
2022-08-21T03:33:08.901Z,2.40
2022-08-21T03:35:38.992Z,2.92
2022-08-21T03:38:05.572Z,2.17
2022-08-21T03:40:32.515Z,4.93
2022-08-21T03:42:59.787Z,2.55
2022-08-21T03:45:26.596Z,2.53
2022-08-21T03:47:58.936Z,2.38
2022-08-21T03:50:28.590Z,3.30
2022-08-21T03:52:55.748Z,3.90
2022-08-21T03:55:22.423Z,2.80
2022-08-21T03:57:49.050Z,3.00
2022-08-21T04:00:17.251Z,4.18
2022-08-21T04:02:46.694Z,3.20
2022-08-21T04:05:15.091Z,3.78
2022-08-21T04:07:41.668Z,3.13
2022-08-21T04:10:08.858Z,4.10
2022-08-21T04:12:35.607Z,2.88
2022-08-21T04:15:02.868Z,2.50
2022-08-21T04:17:29.493Z,2.95
2022-08-21T04:19:56.098Z,2.97
2022-08-21T04:22:23.180Z,3.58
2022-08-21T04:24:50.594Z,2.95
2022-08-21T04:27:17.118Z,3.85
2022-08-21T04:29:43.659Z,3.03
2022-08-21T04:32:10.226Z,2.60
2022-08-21T04:34:37.295Z,4.78
2022-08-21T04:37:04.231Z,2.53
2022-08-21T04:39:30.787Z,3.80
2022-08-21T04:41:57.625Z,4.50
2022-08-21T04:44:24.447Z,2.83
2022-08-21T04:46:50.994Z,2.90
2022-08-21T04:49:17.651Z,3.55
2022-08-21T04:51:45.450Z,2.58
2022-08-21T04:54:22.649Z,2.40
2022-08-21T04:56:54.572Z,2.75
2022-08-21T04:59:28.756Z,2.78
2022-08-21T05:01:57.606Z,3.00
2022-08-21T05:04:28.859Z,2.70
2022-08-21T05:06:59.694Z,3.28
2022-08-21T05:09:27.724Z,2.90
2022-08-21T05:11:55.471Z,2.00
2022-08-21T05:14:22.032Z,2.65
2022-08-21T05:16:48.854Z,2.70
2022-08-21T05:19:15.749Z,2.35
2022-08-21T05:21:44.220Z,2.47
2022-08-21T05:24:12.301Z,3.33
2022-08-21T05:26:46.170Z,2.45
2022-08-21T05:29:14.252Z,2.30
2022-08-21T05:31:42.094Z,2.50
2022-08-21T05:34:09.025Z,2.65
2022-08-21T05:36:35.968Z,2.53
2022-08-21T05:39:02.917Z,2.17
2022-08-21T05:41:29.446Z,2.25
2022-08-21T05:43:55.988Z,2.10
2022-08-21T05:46:22.601Z,2.28
2022-08-21T05:48:49.693Z,1.77
2022-08-21T05:51:16.737Z,2.08
2022-08-21T05:53:44.128Z,1.75
2022-08-21T05:56:12.311Z,1.83
2022-08-21T05:58:39.247Z,2.00
2022-08-21T06:01:07.456Z,2.30
2022-08-21T06:03:37.824Z,3.47
2022-08-21T06:06:04.660Z,1.98
2022-08-21T06:08:31.969Z,2.10
2022-08-21T06:11:00.748Z,1.70
2022-08-21T06:13:28.077Z,2.13
2022-08-21T06:16:15.633Z,2.17
2022-08-21T06:18:43.434Z,2.35
2022-08-21T06:21:10.295Z,2.22
2022-08-21T06:23:36.928Z,3.17
2022-08-21T06:26:05.639Z,1.90
2022-08-21T06:28:33.521Z,1.95
2022-08-21T06:31:00.359Z,1.92
2022-08-21T06:33:31.937Z,1.50
2022-08-21T06:35:59.157Z,1.55
2022-08-21T06:38:25.686Z,1.92
2022-08-21T06:40:53.125Z,2.38
2022-08-21T06:43:19.792Z,1.35
2022-08-21T06:45:46.426Z,1.65
2022-08-21T06:48:18.368Z,1.35
2022-08-21T06:50:45.899Z,2.35
2022-08-21T06:53:15.328Z,1.88
2022-08-21T06:55:43.132Z,1.63
2022-08-21T06:58:10.551Z,1.98
2022-08-21T07:00:41.207Z,2.53
2022-08-21T07:03:07.819Z,1.60
2022-08-21T07:05:34.419Z,2.05
2022-08-21T07:08:00.979Z,1.80
2022-08-21T07:10:28.629Z,2.35
2022-08-21T07:13:00.679Z,1.40
2022-08-21T07:15:30.258Z,1.45
2022-08-21T07:17:58.040Z,1.25
2022-08-21T07:20:24.772Z,2.08
2022-08-21T07:22:51.965Z,1.50
2022-08-21T07:25:18.678Z,1.35
2022-08-21T07:27:45.235Z,1.35
2022-08-21T07:30:12.030Z,1.83
2022-08-21T07:32:38.615Z,2.40
2022-08-21T07:35:05.765Z,1.17
2022-08-21T07:37:32.303Z,1.10
2022-08-21T07:39:58.907Z,1.48
2022-08-21T07:42:25.644Z,1.10
2022-08-21T07:44:53.170Z,1.25
2022-08-21T07:47:41.646Z,1.50
2022-08-21T07:50:10.496Z,1.27
2022-08-21T07:52:37.838Z,1.65
2022-08-21T07:55:06.625Z,1.58
2022-08-21T07:57:33.789Z,1.00
2022-08-21T08:00:00.552Z,2.22
2022-08-21T08:02:29.380Z,1.30
2022-08-21T08:05:00.145Z,2.08
2022-08-21T08:07:27.064Z,1.55
2022-08-21T08:09:53.668Z,2.80
2022-08-21T08:12:21.526Z,2.83
2022-08-21T08:14:48.227Z,1.73
2022-08-21T08:17:14.783Z,2.33
2022-08-21T08:19:41.339Z,2.10
2022-08-21T08:22:15.475Z,1.45
2022-08-21T08:24:42.390Z,2.17
2022-08-21T08:27:09.052Z,2.33
2022-08-21T08:29:35.872Z,3.75
2022-08-21T08:32:03.754Z,3.20
2022-08-21T08:34:31.274Z,1.40
2022-08-21T08:36:59.475Z,3.22
2022-08-21T08:39:29.565Z,3.13
2022-08-21T08:42:32.272Z,2.08
2022-08-21T08:45:11.713Z,1.27
2022-08-21T08:47:45.457Z,1.73
2022-08-21T08:50:18.857Z,2.58
2022-08-21T08:53:06.655Z,2.83
2022-08-21T08:55:40.055Z,1.75
2022-08-21T08:58:07.094Z,1.73
2022-08-21T09:00:34.115Z,3.00
2022-08-21T09:03:03.834Z,3.90
2022-08-21T09:05:45.970Z,2.63
2022-08-21T09:08:16.681Z,1.98
2022-08-21T09:11:10.420Z,3.47
2022-08-21T09:13:56.721Z,3.42
2022-08-21T09:16:29.943Z,4.45
2022-08-21T09:19:24.949Z,1.45
2022-08-21T09:22:10.823Z,4.03
2022-08-21T09:24:40.392Z,4.70
2022-08-21T09:27:09.771Z,3.45
2022-08-21T09:29:43.528Z,2.45
2022-08-21T09:32:19.435Z,4.85
2022-08-21T09:35:10.048Z,2.22
2022-08-21T09:37:47.098Z,2.15
2022-08-21T09:40:40.807Z,2.28
2022-08-21T09:43:13.188Z,1.98
2022-08-21T09:45:42.700Z,2.65
2022-08-21T09:48:20.641Z,4.20
2022-08-21T09:50:48.608Z,1.80
2022-08-21T09:53:25.233Z,2.42
2022-08-21T09:56:21.491Z,1.95
2022-08-21T09:58:52.555Z,2.90
2022-08-21T10:01:22.845Z,1.63
2022-08-21T10:04:02.436Z,5.10
2022-08-21T10:06:30.122Z,4.03
2022-08-21T10:09:18.780Z,3.08
2022-08-21T10:12:11.348Z,4.70
2022-08-21T10:15:08.731Z,3.47
2022-08-21T10:17:50.398Z,2.55
2022-08-21T10:20:55.585Z,3.75
2022-08-21T10:23:44.131Z,4.43
2022-08-21T10:26:21.531Z,5.15
2022-08-21T10:29:34.685Z,2.40
2022-08-21T10:32:11.719Z,4.85
2022-08-21T10:35:15.587Z,3.28
2022-08-21T10:38:46.352Z,2.17
2022-08-21T10:41:47.063Z,3.42
2022-08-21T10:44:34.299Z,3.38
2022-08-21T10:47:14.830Z,3.67
2022-08-21T10:49:46.653Z,1.45
2022-08-21T10:52:44.958Z,2.33
2022-08-21T10:55:20.079Z,4.50
2022-08-21T10:57:48.929Z,4.63
2022-08-21T11:00:23.249Z,2.38
2022-08-21T11:03:01.113Z,2.88
2022-08-21T11:05:37.940Z,5.45
2022-08-21T11:08:11.262Z,4.22
2022-08-21T11:10:54.194Z,3.30
2022-08-21T11:13:46.109Z,2.67
2022-08-21T11:16:38.283Z,3.10
2022-08-21T11:19:26.370Z,3.53
2022-08-21T11:22:05.154Z,3.90
2022-08-21T11:24:35.030Z,2.80
2022-08-21T11:27:18.259Z,4.50
2022-08-21T11:29:49.421Z,4.28
2022-08-21T11:32:53.662Z,3.40
2022-08-21T11:35:47.642Z,2.72
2022-08-21T11:38:35.989Z,4.65
2022-08-21T11:41:27.203Z,2.33
2022-08-21T11:44:16.835Z,3.85
2022-08-21T11:47:16.190Z,2.13
2022-08-21T11:50:34.370Z,3.38
2022-08-21T11:53:19.032Z,4.57
2022-08-21T11:56:08.107Z,4.70
2022-08-21T11:58:49.140Z,2.72
2022-08-21T12:01:21.845Z,3.35
2022-08-21T12:04:03.295Z,2.05
2022-08-21T12:06:36.538Z,4.28
2022-08-21T12:09:08.384Z,2.28
2022-08-21T12:11:51.463Z,3.72
2022-08-21T12:14:20.057Z,2.20
2022-08-21T12:16:49.248Z,3.13
2022-08-21T12:19:31.210Z,5.47
2022-08-21T12:22:07.380Z,2.85
2022-08-21T12:24:43.675Z,3.75
2022-08-21T12:27:26.637Z,3.58
2022-08-21T12:30:06.344Z,2.70
2022-08-21T12:32:41.834Z,4.10
2022-08-21T12:35:24.513Z,2.95
2022-08-21T12:38:18.830Z,2.83
2022-08-21T12:41:02.237Z,2.83
2022-08-21T12:43:35.844Z,2.45
2022-08-21T12:46:05.360Z,2.03
2022-08-21T12:48:47.826Z,3.00
2022-08-21T12:51:29.479Z,1.83
2022-08-21T12:53:59.388Z,2.35
2022-08-21T12:56:28.975Z,4.25
2022-08-21T12:58:59.973Z,2.67
2022-08-21T13:01:41.466Z,2.55
2022-08-21T13:04:12.926Z,3.60
2022-08-21T13:06:43.163Z,3.22
2022-08-21T13:09:14.199Z,1.60
2022-08-21T13:11:43.192Z,4.22
2022-08-21T13:14:45.368Z,1.98
2022-08-21T13:17:13.738Z,1.98
2022-08-21T13:19:59.141Z,3.95
2022-08-21T13:22:33.485Z,3.63
2022-08-21T13:25:01.591Z,1.40
2022-08-21T13:27:34.954Z,2.38
2022-08-21T13:30:08.382Z,2.00
2022-08-21T13:32:38.699Z,1.95
2022-08-21T13:35:12.676Z,1.50
2022-08-21T13:37:41.601Z,2.38
2022-08-21T13:40:15.867Z,1.77
2022-08-21T13:42:45.612Z,4.10
2022-08-21T13:45:28.294Z,2.67
2022-08-21T13:47:55.774Z,1.45
2022-08-21T13:50:25.064Z,3.97
2022-08-21T13:53:03.779Z,4.63
2022-08-21T13:55:44.705Z,2.55
2022-08-21T13:58:12.442Z,3.08
2022-08-21T14:00:52.441Z,1.70
2022-08-21T14:03:36.279Z,2.75
2022-08-21T14:06:03.887Z,1.85
2022-08-21T14:08:36.812Z,1.40
2022-08-21T14:11:10.536Z,1.50
2022-08-21T14:13:42.276Z,2.63
2022-08-21T14:16:19.126Z,2.50
2022-08-21T14:18:54.995Z,2.13
2022-08-21T14:21:33.191Z,2.05
2022-08-21T14:24:05.014Z,1.10
2022-08-21T14:26:32.239Z,1.77
2022-08-21T14:29:01.915Z,1.10
2022-08-21T14:31:36.858Z,1.33
2022-08-21T14:34:19.106Z,1.58
2022-08-21T14:36:46.488Z,2.00
2022-08-21T14:39:13.090Z,2.03
2022-08-21T14:41:40.008Z,1.90
2022-08-21T14:44:09.618Z,1.73
2022-08-21T14:46:54.304Z,1.85
2022-08-21T14:49:28.875Z,1.10
2022-08-21T14:51:59.351Z,1.95
2022-08-21T14:54:31.173Z,1.65
2022-08-21T14:57:04.042Z,1.33
2022-08-21T14:59:30.867Z,2.40
2022-08-21T15:01:57.438Z,1.00
2022-08-21T15:04:24.083Z,1.77
2022-08-21T15:06:50.644Z,1.25
2022-08-21T15:09:17.414Z,1.35
2022-08-21T15:11:44.278Z,2.05
2022-08-21T15:14:20.334Z,3.13
2022-08-21T15:16:48.007Z,1.30
2022-08-21T15:19:14.716Z,3.38
2022-08-21T15:21:41.259Z,2.47
2022-08-21T15:24:07.842Z,2.40
2022-08-21T15:26:35.774Z,1.60
2022-08-21T15:29:06.684Z,2.05
2022-08-21T15:31:33.814Z,1.75
2022-08-21T15:34:00.408Z,1.35
2022-08-21T15:36:27.046Z,1.55
2022-08-21T15:38:53.619Z,1.33
2022-08-21T15:41:20.308Z,1.23
2022-08-21T15:43:50.003Z,2.55
2022-08-21T15:46:19.240Z,2.15
2022-08-21T15:48:46.980Z,2.28
2022-08-21T15:51:15.139Z,2.25
2022-08-21T15:53:41.733Z,1.35
2022-08-21T15:56:21.019Z,2.30
2022-08-21T15:58:47.841Z,2.35
2022-08-21T16:01:14.529Z,2.38
2022-08-21T16:03:41.883Z,1.50
2022-08-21T16:06:08.440Z,6.93
2022-08-21T16:08:34.998Z,2.55
2022-08-21T16:11:02.225Z,2.55
2022-08-21T16:13:37.211Z,1.45
2022-08-21T16:16:04.196Z,2.17
2022-08-21T16:18:30.890Z,2.17
2022-08-21T16:20:57.511Z,1.25
2022-08-21T16:23:24.150Z,4.38
2022-08-21T16:25:50.865Z,1.65
2022-08-21T16:28:19.592Z,2.40
2022-08-21T16:30:49.259Z,4.32
2022-08-21T16:33:27.538Z,1.65
2022-08-21T16:35:54.189Z,2.92
2022-08-21T16:38:20.872Z,1.67
2022-08-21T16:40:47.690Z,1.80
2022-08-21T16:43:14.855Z,2.30
2022-08-21T16:45:43.375Z,3.17
2022-08-21T16:48:10.330Z,2.38
2022-08-21T16:50:37.897Z,1.80
2022-08-21T16:53:05.604Z,1.95
2022-08-21T16:55:34.034Z,2.33
2022-08-21T16:58:02.680Z,2.70
2022-08-21T17:00:30.472Z,3.38
2022-08-21T17:02:57.141Z,1.30
2022-08-21T17:05:23.891Z,1.27
2022-08-21T17:07:50.518Z,1.73
2022-08-21T17:10:19.053Z,1.30
2022-08-21T17:12:56.984Z,2.60
2022-08-21T17:15:27.404Z,1.48
2022-08-21T17:17:56.318Z,1.55
2022-08-21T17:20:23.332Z,2.47
2022-08-21T17:22:50.156Z,2.00
2022-08-21T17:25:16.742Z,1.88
2022-08-21T17:27:44.324Z,1.40
2022-08-21T17:30:12.387Z,1.73
2022-08-21T17:32:39.478Z,1.40
2022-08-21T17:35:06.970Z,2.13
2022-08-21T17:37:33.887Z,1.30
2022-08-21T17:40:01.582Z,2.05
2022-08-21T17:42:29.974Z,1.80
2022-08-21T17:44:57.259Z,1.48
2022-08-21T17:47:24.522Z,1.63
2022-08-21T17:49:51.595Z,1.70
2022-08-21T17:52:18.171Z,1.42
2022-08-21T17:54:44.760Z,2.55
2022-08-21T17:57:20.430Z,3.08
2022-08-21T17:59:49.770Z,2.65
2022-08-21T18:02:19.522Z,1.63
2022-08-21T18:04:46.986Z,4.82
2022-08-21T18:07:31.969Z,8.00
2022-08-21T18:10:01.397Z,8.57
2022-08-21T18:12:28.738Z,8.57
2022-08-21T18:14:55.407Z,6.60
2022-08-21T18:17:23.759Z,4.55
2022-08-21T18:19:50.526Z,3.70
2022-08-21T18:22:17.217Z,3.03
2022-08-21T18:24:44.281Z,2.88
2022-08-21T18:27:13.116Z,2.40
2022-08-21T18:29:43.867Z,2.30
2022-08-21T18:32:31.365Z,2.45
2022-08-21T18:35:00.479Z,2.13
2022-08-21T18:37:27.465Z,2.33
2022-08-21T18:39:54.287Z,2.47
2022-08-21T18:42:21.473Z,2.20
2022-08-21T18:44:59.173Z,2.70
2022-08-21T18:47:36.959Z,2.20
2022-08-21T18:52:54.492Z,2.38
2022-08-21T18:55:24.677Z,2.55
2022-08-21T18:57:51.821Z,2.88
2022-08-21T19:00:23.499Z,2.60
2022-08-21T19:02:51.678Z,2.40
2022-08-21T19:05:20.190Z,2.95
2022-08-21T19:07:49.900Z,2.45
2022-08-21T19:10:28.585Z,2.38
2022-08-21T19:15:52.917Z,2.83
2022-08-21T19:18:28.262Z,2.70
2022-08-21T19:20:57.292Z,3.30
2022-08-21T19:23:28.919Z,2.88
2022-08-21T19:26:00.580Z,3.05
2022-08-21T19:28:32.301Z,2.60
2022-08-21T19:31:05.242Z,2.75
2022-08-21T19:33:42.047Z,3.08
2022-08-21T19:36:11.544Z,2.55
2022-08-21T19:38:39.276Z,2.72
2022-08-21T19:41:09.190Z,3.05
2022-08-21T19:43:42.596Z,2.90
2022-08-21T19:46:09.317Z,3.28
2022-08-21T19:48:37.048Z,3.35
2022-08-21T19:51:05.007Z,3.17
2022-08-21T19:53:31.546Z,3.47
2022-08-21T19:55:58.102Z,4.05
2022-08-21T19:58:40.211Z,2.97
2022-08-21T20:01:11.469Z,3.40
2022-08-21T20:03:44.437Z,3.15
2022-08-21T20:06:11.835Z,3.63
2022-08-21T20:08:38.569Z,3.10
2022-08-21T20:11:06.390Z,3.03
2022-08-21T20:13:33.950Z,4.22
2022-08-21T20:16:04.585Z,3.78
2022-08-21T20:18:33.511Z,3.47
2022-08-21T20:21:00.119Z,4.15
2022-08-21T20:23:29.802Z,3.75
2022-08-21T20:26:00.472Z,3.55
2022-08-21T20:28:29.009Z,3.72
2022-08-21T20:30:56.148Z,3.53
2022-08-21T20:33:23.724Z,3.80
2022-08-21T20:35:52.083Z,3.50
2022-08-21T20:38:19.706Z,4.28
2022-08-21T20:40:50.838Z,3.90
2022-08-21T20:43:18.791Z,3.88
2022-08-21T20:45:46.616Z,4.22
2022-08-21T20:48:26.819Z,4.38
2022-08-21T20:51:02.379Z,4.15
2022-08-21T20:53:44.998Z,3.70
2022-08-21T20:56:23.007Z,4.68
2022-08-21T20:59:00.238Z,3.65
2022-08-21T21:01:32.625Z,4.03
2022-08-21T21:04:15.867Z,3.92
2022-08-21T21:09:41.214Z,4.53
2022-08-21T21:12:27.561Z,4.13
2022-08-21T21:15:00.014Z,4.20
2022-08-21T21:17:47.117Z,4.00
2022-08-21T21:20:26.937Z,4.32
2022-08-21T21:23:00.992Z,4.10
2022-08-21T21:28:27.288Z,4.72
2022-08-21T21:33:42.647Z,5.38
2022-08-21T21:36:16.368Z,5.10
2022-08-21T21:38:56.735Z,4.70
2022-08-21T21:41:54.343Z,4.78
2022-08-21T21:44:32.110Z,4.35
2022-08-21T21:47:06.444Z,4.60
2022-08-21T21:49:40.696Z,4.40
2022-08-21T21:52:28.944Z,4.53
2022-08-21T21:55:07.722Z,5.75
2022-08-21T21:58:03.509Z,5.32
2022-08-21T22:01:18.538Z,4.70
2022-08-21T22:03:57.055Z,5.18
2022-08-21T22:06:29.630Z,4.97
2022-08-21T22:09:09.327Z,4.95
2022-08-21T22:11:58.600Z,4.68
2022-08-21T22:14:33.478Z,4.43
2022-08-21T22:17:08.137Z,5.35
2022-08-21T22:19:40.806Z,5.55
2022-08-21T22:22:20.073Z,5.00
2022-08-21T22:24:50.279Z,5.20
2022-08-21T22:27:30.932Z,4.75
2022-08-21T22:30:00.647Z,5.03
2022-08-21T22:32:50.360Z,4.30
2022-08-21T22:35:25.379Z,4.00
2022-08-21T22:37:59.315Z,4.47
2022-08-21T22:40:29.647Z,5.35
2022-08-21T22:43:07.351Z,5.15
2022-08-21T22:46:09.543Z,4.70
2022-08-21T22:48:51.955Z,5.15
2022-08-21T22:51:36.265Z,5.28
2022-08-21T22:54:04.744Z,4.45
2022-08-21T22:56:49.396Z,5.45
2022-08-21T22:59:30.342Z,4.78
2022-08-21T23:02:18.532Z,4.75
2022-08-21T23:04:48.230Z,5.13
2022-08-21T23:07:43.516Z,5.45
2022-08-21T23:10:30.583Z,5.22
2022-08-21T23:13:09.193Z,4.88
2022-08-21T23:15:56.711Z,5.20
2022-08-21T23:18:56.600Z,5.03
2022-08-21T23:21:41.838Z,4.88
2022-08-21T23:24:23.516Z,5.30
2022-08-21T23:27:09.615Z,5.47
2022-08-21T23:30:04.399Z,4.65
2022-08-21T23:36:02.711Z,4.45
2022-08-21T23:38:56.645Z,4.65
2022-08-21T23:41:46.569Z,4.57
2022-08-21T23:44:34.151Z,4.57
2022-08-21T23:47:05.163Z,5.38
2022-08-21T23:49:46.575Z,5.63
2022-08-21T23:52:33.078Z,5.22
2022-08-21T23:55:25.296Z,5.28
2022-08-21T23:58:23.543Z,5.63
